RKSI/ICN METAR and TAF weather

Enter ICAO airport designator
Station Type Date Time Source
RKSI METAR 2021/03/04 21:30 UTC NOAA

RKSI 042130Z 03001KT 4000 BR NSC 02/01 Q1022 NOSIG


Station Type Date Time Source
RKSI Decoded METAR 2021/03/04 21:30 UTC NOAA

Incheon International Airport, Korea, South (RKSI) 37-28N 126-27E
Mar 04, 2021 - 04:30 PM EST / 2021.03.04 2130 UTC
Wind: from the NNE (030 degrees) at 1 MPH (1 KT):0
Visibility: 2 mile(s):0
Weather: mist
Temperature: 35 F (2 C)
Dew Point: 33 F (1 C)
Relative Humidity: 93%
Pressure (altimeter): 30.18 in. Hg (1022 hPa)
ob: RKSI 042130Z 03001KT 4000 BR NSC 02/01 Q1022 NOSIG
cycle: 21

Station Type Date Time Source
RKSI TAF 2021/03/04 18:06 UTC NOAA

TAF RKSI 041700Z 0418/0524 35006KT 3500 BR NSC TN01/0421Z TX11/0506Z TN03/0521Z
BECMG 0422/0423 6000 NSW
BECMG 0508/0509 3500 BR
BECMG 0514/0515 2500 BKN005
BECMG 0522/0523 05010KT 7000 NSW NSC

Example: see airport list